Map

Track Data

SID SEASON NUMBER BASIN SUBBASIN NAME ISO_TIME NATURE LAT LON WMO_WIND WMO_PRES WMO_AGENCY TRACK_TYPE DIST2LAND LANDFALL IFLAG USA_AGENCY USA_ATCF_ID USA_LAT USA_LON USA_RECORD USA_STATUS USA_WIND USA_PRES USA_SSHS USA_R34_NE USA_R34_SE USA_R34_SW USA_R34_NW USA_R50_NE USA_R50_SE USA_R50_SW USA_R50_NW USA_R64_NE USA_R64_SE USA_R64_SW USA_R64_NW USA_POCI USA_ROCI USA_RMW USA_EYE TOKYO_LAT TOKYO_LON TOKYO_GRADE TOKYO_WIND TOKYO_PRES TOKYO_R50_DIR TOKYO_R50_LONG TOKYO_R50_SHORT TOKYO_R30_DIR TOKYO_R30_LONG TOKYO_R30_SHORT TOKYO_LAND CMA_LAT CMA_LON CMA_CAT CMA_WIND CMA_PRES HKO_LAT HKO_LON HKO_CAT HKO_WIND HKO_PRES NEWDELHI_LAT NEWDELHI_LON NEWDELHI_GRADE NEWDELHI_WIND NEWDELHI_PRES NEWDELHI_CI NEWDELHI_DP NEWDELHI_POCI REUNION_LAT REUNION_LON REUNION_TYPE REUNION_WIND REUNION_PRES REUNION_TNUM REUNION_CI REUNION_RMW REUNION_R34_NE REUNION_R34_SE REUNION_R34_SW REUNION_R34_NW REUNION_R50_NE REUNION_R50_SE REUNION_R50_SW REUNION_R50_NW REUNION_R64_NE REUNION_R64_SE REUNION_R64_SW REUNION_R64_NW BOM_LAT BOM_LON BOM_TYPE BOM_WIND BOM_PRES BOM_TNUM BOM_CI BOM_RMW BOM_R34_NE BOM_R34_SE BOM_R34_SW BOM_R34_NW BOM_R50_NE BOM_R50_SE BOM_R50_SW BOM_R50_NW BOM_R64_NE BOM_R64_SE BOM_R64_SW BOM_R64_NW BOM_ROCI BOM_POCI BOM_EYE BOM_POS_METHOD BOM_PRES_METHOD NADI_LAT NADI_LON NADI_CAT NADI_WIND NADI_PRES WELLINGTON_LAT WELLINGTON_LON WELLINGTON_WIND WELLINGTON_PRES DS824_LAT DS824_LON DS824_STAGE DS824_WIND DS824_PRES TD9636_LAT TD9636_LON TD9636_STAGE TD9636_WIND TD9636_PRES TD9635_LAT TD9635_LON TD9635_WIND TD9635_PRES TD9635_ROCI NEUMANN_LAT NEUMANN_LON NEUMANN_CLASS NEUMANN_WIND NEUMANN_PRES MLC_LAT MLC_LON MLC_CLASS MLC_WIND MLC_PRES USA_GUST BOM_GUST BOM_GUST_PER REUNION_GUST REUNION_GUST_PER USA_SEAHGT USA_SEARAD_NE USA_SEARAD_SE USA_SEARAD_SW USA_SEARAD_NW STORM_SPEED STORM_DIR
1911060S14071 1911 18 SI MM NOT_NAMED 1911-03-01 06:00:00 NR -13.7000 71.1000 reunion spur-split 1594 1585 _____O________ -1 -13.7000 71.1000 99 9.90000 2 260
1911060S14071 1911 18 SI MM NOT_NAMED 1911-03-01 09:00:00 NR -13.7167 70.9977 spur-split 1585 1575 _____P________ -1 -13.7167 70.9977 99 2 260
1911060S14071 1911 18 SI MM NOT_NAMED 1911-03-01 12:00:00 NR -13.7342 70.8909 spur-split 1575 1560 _____P________ -1 -13.7342 70.8909 99 2 260
1911060S14071 1911 18 SI MM NOT_NAMED 1911-03-01 15:00:00 NR -13.7533 70.7750 spur-split 1560 1551 _____P________ -1 -13.7533 70.7750 99 2 260
1911060S14071 1911 18 SI MM NOT_NAMED 1911-03-01 18:00:00 NR -13.7748 70.6455 spur-split 1541 1532 _____P________ -1 -13.7748 70.6455 99 3 260
1911060S14071 1911 18 SI MM NOT_NAMED 1911-03-01 21:00:00 NR -13.7994 70.4977 spur-split 1532 1513 _____P________ -1 -13.7994 70.4977 99 3 260
1911060S14071 1911 18 SI MM NOT_NAMED 1911-03-02 00:00:00 NR -13.8280 70.3273 spur-split 1513 1489 _____P________ -1 -13.8280 70.3273 99 4 260
1911060S14071 1911 18 SI MM NOT_NAMED 1911-03-02 03:00:00 NR -13.8613 70.1296 spur-split 1489 1470 _____P________ -1 -13.8613 70.1296 99 4 260
1911060S14071 1911 18 SI MM NOT_NAMED 1911-03-02 06:00:00 NR -13.9000 69.9000 reunion spur-split 1470 1451 _____O________ -1 -13.9000 69.9000 99 9.90000 5 260
1911060S14071 1911 18 SI MM NOT_NAMED 1911-03-02 09:00:00 NR -13.9449 69.6352 spur-split 1442 1418 _____P________ -1 -13.9449 69.6352 99 6 260
1911060S14071 1911 18 SI MM NOT_NAMED 1911-03-02 12:00:00 NR -13.9967 69.3369 spur-split 1408 1375 _____P________ -1 -13.9967 69.3369 99 6 260
1911060S14071 1911 18 SI MM NOT_NAMED 1911-03-02 15:00:00 NR -14.0562 69.0079 spur-split 1375 1347 _____P________ -1 -14.0562 69.0079 99 7 259
1911060S14071 1911 18 SI MM NOT_NAMED 1911-03-02 18:00:00 NR -14.1244 68.6509 spur-split 1347 1305 _____P________ -1 -14.1244 68.6509 99 7 259
1911060S14071 1911 18 SI MM NOT_NAMED 1911-03-02 21:00:00 NR -14.2020 68.2689 spur-split 1305 1262 _____P________ -1 -14.2020 68.2689 99 8 258
1911060S14071 1911 18 SI MM NOT_NAMED 1911-03-03 00:00:00 NR -14.2899 67.8645 spur-split 1262 1220 _____P________ -1 -14.2899 67.8645 99 8 257
1911060S14071 1911 18 SI MM NOT_NAMED 1911-03-03 03:00:00 NR -14.3890 67.4407 spur-split 1211 1169 _____P________ -1 -14.3890 67.4407 99 9 256
1911060S14071 1911 18 SI MM NOT_NAMED 1911-03-03 06:00:00 NR -14.5000 67.0000 reunion spur-split 1169 1127 _____O________ -1 -14.5000 67.0000 99 9.90000 9 256
1911060S14071 1911 18 SI MM NOT_NAMED 1911-03-03 09:00:00 NR -14.6092 66.5436 spur-split 1118 1076 _____P________ -1 -14.6092 66.5436 99 9 256
1911060S14071 1911 18 SI MM NOT_NAMED 1911-03-03 12:00:00 NR -14.7295 66.0642 spur-split 1076 1019 _____P________ -1 -14.7295 66.0642 99 10 255
1911060S14071 1911 18 SI MM NOT_NAMED 1911-03-03 15:00:00 NR -14.8610 65.5688 spur-split 1019 969 _____P________ -1 -14.8610 65.5688 99 10 254
1911060S14071 1911 18 SI MM NOT_NAMED 1911-03-03 18:00:00 NR -15.0041 65.0645 spur-split 969 913 _____P________ -1 -15.0041 65.0645 99 10 253
1911060S14071 1911 18 SI MM NOT_NAMED 1911-03-03 21:00:00 NR -15.1591 64.5583 spur-split 913 864 _____P________ -1 -15.1591 64.5583 99 10 252
1911060S14071 1911 18 SI MM NOT_NAMED 1911-03-04 00:00:00 NR -15.3264 64.0575 spur-split 864 809 _____P________ -1 -15.3264 64.0575 99 10 250
1911060S14071 1911 18 SI MM NOT_NAMED 1911-03-04 03:00:00 NR -15.5065 63.5690 spur-split 809 754 _____P________ -1 -15.5065 63.5690 99 10 248
1911060S14071 1911 18 SI MM NOT_NAMED 1911-03-04 06:00:00 NR -15.7000 63.1000 reunion spur-split 754 699 _____O________ -1 -15.7000 63.1000 99 9.90000 10 249
1911060S14071 1911 18 SI MM NOT_NAMED 1911-03-04 09:00:00 NR -15.8649 62.6164 spur-split 699 660 _____P________ -1 -15.8649 62.6164 99 10 250
1911060S14071 1911 18 SI MM NOT_NAMED 1911-03-04 12:00:00 NR -16.0398 62.1426 spur-split 653 607 _____P________ -1 -16.0398 62.1426 99 10 248
1911060S14071 1911 18 SI MM NOT_NAMED 1911-03-04 15:00:00 NR -16.2301 61.6874 spur-split 607 562 _____P________ -1 -16.2301 61.6874 99 9 245
1911060S14071 1911 18 SI MM NOT_NAMED 1911-03-04 18:00:00 NR -16.4410 61.2596 spur-split 562 508 _____P________ -1 -16.4410 61.2596 99 9 240
1911060S14071 1911 18 SI MM NOT_NAMED 1911-03-04 21:00:00 NR -16.6780 60.8680 spur-split 508 464 _____P________ -1 -16.6780 60.8680 99 9 234
1911060S14071 1911 18 SI MM NOT_NAMED 1911-03-05 00:00:00 NR -16.9465 60.5216 spur-split 464 417 _____P________ -1 -16.9465 60.5216 99 8 227
1911060S14071 1911 18 SI MM NOT_NAMED 1911-03-05 03:00:00 NR -17.2520 60.2293 spur-split 409 369 _____P________ -1 -17.2520 60.2293 99 8 217
1911060S14071 1911 18 SI MM NOT_NAMED 1911-03-05 06:00:00 NR -17.6000 60.0000 reunion spur-split 369 322 _____O________ -1 -17.6000 60.0000 99 9.90000 9 208
1911060S14071 1911 18 SI MM NOT_NAMED 1911-03-05 09:00:00 NR -18.0049 59.8160 spur-split 322 283 _____P________ -1 -18.0049 59.8160 99 9 199
1911060S14071 1911 18 SI MM NOT_NAMED 1911-03-05 12:00:00 NR -18.4549 59.6928 spur-split 275 240 _____P________ -1 -18.4549 59.6928 99 10 191
1911060S14071 1911 18 SI MM NOT_NAMED 1911-03-05 15:00:00 NR -18.9412 59.6261 spur-split 240 213 _____P________ -1 -18.9412 59.6261 99 10 185
1911060S14071 1911 18 SI MM NOT_NAMED 1911-03-05 18:00:00 NR -19.4547 59.6119 spur-split 208 190 _____P________ -1 -19.4547 59.6119 99 11 180
1911060S14071 1911 18 SI MM NOT_NAMED 1911-03-05 21:00:00 NR -19.9865 59.6462 spur-split 190 190 _____P________ -1 -19.9865 59.6462 99 11 174
1911060S14071 1911 18 SI MM NOT_NAMED 1911-03-06 00:00:00 NR -20.5273 59.7250 spur-split 199 199 _____P________ -1 -20.5273 59.7250 99 11 170
1911060S14071 1911 18 SI MM NOT_NAMED 1911-03-06 03:00:00 NR -21.0682 59.8443 spur-split 226 226 _____P________ -1 -21.0682 59.8443 99 11 167
1911060S14071 1911 18 SI MM NOT_NAMED 1911-03-06 06:00:00 NR -21.6000 60.0000 reunion spur-split 268 268 _____O________ -1 -21.6000 60.0000 99 9.90000 11 163
1911060S14071 1911 18 SI MM NOT_NAMED 1911-03-06 09:00:00 NR -22.1424 60.1891 spur-split 314 314 _____P________ -1 -22.1424 60.1891 99 12 160
1911060S14071 1911 18 SI MM NOT_NAMED 1911-03-06 12:00:00 NR -22.6877 60.4267 spur-split 371 371 _____P________ -1 -22.6877 60.4267 99 12 156
1911060S14071 1911 18 SI MM NOT_NAMED 1911-03-06 15:00:00 NR -23.2248 60.6993 spur-split 432 432 _____P________ -1 -23.2248 60.6993 99 12 154
1911060S14071 1911 18 SI MM NOT_NAMED 1911-03-06 18:00:00 NR -23.7425 60.9933 spur-split 493 493 _____P________ -1 -23.7425 60.9933 99 11 152
1911060S14071 1911 18 SI MM NOT_NAMED 1911-03-06 21:00:00 NR -24.2298 61.2949 spur-split 554 554 _____P________ -1 -24.2298 61.2949 99 11 150
1911060S14071 1911 18 SI MM NOT_NAMED 1911-03-07 00:00:00 NR -24.6757 61.5896 spur-split 616 616 _____P________ -1 -24.6757 61.5896 99 10 148
1911060S14071 1911 18 SI MM NOT_NAMED 1911-03-07 03:00:00 NR -25.0694 61.8629 spur-split 670 670 _____P________ -1 -25.0694 61.8629 99 9 147
1911060S14071 1911 18 SI MM NOT_NAMED 1911-03-07 06:00:00 NR -25.4000 62.1000 reunion spur-split 708 708 _____O________ -1 -25.4000 62.1000 99 9.90000 7 147
1911060S14071 1911 18 SI MM NOT_NAMED 1911-03-07 09:00:00 NR -25.6603 62.2892 spur-split 747 747 _____P________ -1 -25.6603 62.2892 99 5 147
1911060S14071 1911 18 SI MM NOT_NAMED 1911-03-07 12:00:00 NR -25.8563 62.4332 spur-split 771 771 _____P________ -1 -25.8563 62.4332 99 4 146
1911060S14071 1911 18 SI MM NOT_NAMED 1911-03-07 15:00:00 NR -25.9974 62.5380 spur-split 786 786 _____P________ -1 -25.9974 62.5380 99 3 146
1911060S14071 1911 18 SI MM NOT_NAMED 1911-03-07 18:00:00 NR -26.0927 62.6100 spur-split 801 801 _____P________ -1 -26.0927 62.6100 99 2 146
1911060S14071 1911 18 SI MM NOT_NAMED 1911-03-07 21:00:00 NR -26.1515 62.6556 spur-split 815 815 _____P________ -1 -26.1515 62.6556 99 1 144
1911060S14071 1911 18 SI MM NOT_NAMED 1911-03-08 00:00:00 NR -26.1829 62.6814 spur-split 815 815 _____P________ -1 -26.1829 62.6814 99 1 143
1911060S14071 1911 18 SI MM NOT_NAMED 1911-03-08 03:00:00 NR -26.1960 62.6940 spur-split 815 815 _____P________ -1 -26.1960 62.6940 99 0 0
1911060S14071 1911 18 SI MM NOT_NAMED 1911-03-08 06:00:00 NR -26.2000 62.7000 reunion spur-split 815 _____O________ -1 -26.2000 62.7000 99 9.90000 0 0

About IBTrACS Database

This database is a web-friendly format of International Best Track Archive for Climate Stewardship (IBTrACS), a global best track data archive curated by NOAA dating back to 1842.

Updated: 2021-12-03